Latest Coastal Weather Observations for St Helens

IDT60701

Issued at 9:25 pm EDT Tuesday 21 October 2014 (issued every 10 minutes, with the page automatically refreshed every 10 minutes)

About coastal observations | Map of coastal stations | Coastal observations for TAS | Marine services | Other Formats
Station Details ID: 092120 Name: ST HELENS AERODROME Lat: -41.34 Lon: 148.28 Height: 48.0 m
Data from the previous 72 hours. | See also: Recent months at St Helens
Date/Time
EDT
Temp

°C
Wind Pressure Rain
since 9am
mm
Weather Cloud Vis
km
Sea
Height
m
Swell
Dir
 
Speed
knots
Gust
knots
hPa Trend Height
m
Period
s
Dir
21/09:00pm 13.6 NNE 6 9 1030.2 - 0.0 - - - - - - -
21/08:30pm 13.5 NNE 7 10 1030.4 - 0.0 - - - - - - -
21/08:00pm 13.6 N 8 11 1030.6 - 0.0 - - - - - - -
21/07:30pm 13.7 N 7 10 1030.4 - 0.0 - - - - - - -
21/07:00pm 14.1 N 8 11 1030.3 - 0.0 - - - - - - -
21/06:30pm 14.3 N 9 12 1030.3 - 0.0 - - - - - - -
21/06:00pm 14.6 NNE 11 19 1030.1 - 0.0 - - - - - - -
21/05:30pm 15.5 NE 11 16 1030.6 - 0.0 - - - - - - -
21/05:00pm 15.6 NE 12 15 1030.7 - 0.0 - - - - - - -
21/04:30pm 15.2 NE 11 16 1031.0 - 0.0 - - - - - - -
21/04:00pm 15.9 NE 13 18 1031.4 - 0.0 - - - - - - -
21/03:30pm 16.0 NE 13 19 1031.5 - 0.0 - - - - - - -
21/03:00pm 16.0 NE 11 16 1031.9 - 0.0 - - - - - - -
21/02:30pm 16.2 NE 12 17 1032.3 - 0.0 - - - - - - -
21/02:00pm 15.8 NNE 11 16 1032.7 - 0.0 - - - - - - -
21/01:30pm 16.0 NNE 11 17 1033.0 - 0.0 - - - - - - -
21/01:00pm 15.3 NE 12 15 1033.3 - 0.0 - - - - - - -
21/12:30pm 15.6 NNE 9 14 1033.6 - 0.0 - - - - - - -
21/12:00pm 15.3 NNE 9 12 1033.9 - 0.0 - - - - - - -
21/11:30am 14.6 NE 9 12 1034.2 - 0.0 - - - - - - -
21/11:00am 14.2 NE 11 15 1034.6 - 0.0 - - - - - - -
21/10:30am 13.8 ENE 6 9 1034.9 - 0.0 - - - - - - -
21/10:00am 13.2 E 4 7 1035.1 - 0.0 - - - - - - -
21/09:30am 12.4 N 3 5 1035.1 - 0.0 - - - - - - -
21/09:00am 12.0 NNW 2 5 1034.9 - 0.0 Smoke Mostly cloudy 15 - - - -
21/08:30am 11.7 CALM 0 3 1034.7 - 0.0 - - - - - - -
21/08:00am 10.7 CALM 0 0 1034.6 - 0.0 - - - - - - -
21/07:30am 10.0 WNW 1 4 1034.4 - 0.0 - - - - - - -
21/07:00am 9.3 NNW 3 5 1034.1 - 0.0 - - - - - - -
21/06:30am 8.9 NNW 4 5 1034.0 - 0.0 - - - - - - -
21/06:00am 8.9 WNW 3 5 1033.7 - 0.0 - - - - - - -
21/05:30am 9.3 NW 5 6 1033.4 - 0.0 - - - - - - -
21/05:00am 9.5 NNW 4 6 1033.3 - 0.0 - - - - - - -
21/04:30am 9.6 NNW 5 6 1033.4 - 0.0 - - - - - - -
21/04:00am 9.6 NW 4 6 1033.7 - 0.0 - - - - - - -
21/03:30am 9.6 NNW 4 6 1033.8 - 0.0 - - - - - - -
21/03:00am 9.6 NW 4 6 1034.1 - 0.0 - - - - - - -
21/02:30am 9.8 NNW 4 6 1034.0 - 0.0 - - - - - - -
21/02:00am 9.9 NW 2 5 1034.2 - 0.0 - - - - - - -
21/01:30am 10.1 CALM 0 3 1034.5 - 0.0 - - - - - - -
21/01:00am 10.4 WSW 2 5 1034.9 - 0.0 - - - - - - -
21/12:30am 10.6 CALM 0 0 1035.2 - 0.0 - - - - - - -
21/12:00am 10.5 SSW 0 0 1035.5 - 0.0 - - - - - - -
 
Date/Time
EDT
Temp

°C
Wind Pressure Rain
since 9am
mm
Weather Cloud Vis
km
Sea
Height
m
Swell
Dir
 
Speed
knots
Gust
knots
hPa Trend Height
m
Period
s
Dir
20/11:30pm 10.5 S 2 4 1035.6 - 0.0 - - - - - - -
20/11:00pm 10.5 S 3 5 1035.7 - 0.0 - - - - - - -
20/10:30pm 10.9 E 3 6 1035.7 - 0.0 - - - - - - -
20/10:00pm 10.6 E 4 6 1035.7 - 0.0 - - - - - - -
20/09:30pm 10.6 CALM 0 0 1035.7 - 0.0 - - - - - - -
20/09:00pm 10.4 CALM 0 3 1035.5 - 0.0 - - - - - - -
20/08:30pm 10.0 SE 2 5 1035.2 - 0.0 - - - - - - -
20/08:00pm 9.9 CALM 0 1 1034.8 - 0.0 - - - - - - -
20/07:30pm 10.2 CALM 0 0 1034.5 - 0.0 - - - - - - -
20/07:00pm 10.7 CALM 0 3 1034.3 - 0.0 - - - - - - -
20/06:30pm 11.4 ESE 5 9 1034.1 - 0.0 - - - - - - -
20/06:00pm 11.8 ESE 6 11 1034.0 - 0.0 - - - - - - -
20/05:30pm 12.2 E 7 11 1033.9 - 0.0 - - - - - - -
20/05:00pm 12.8 E 9 14 1033.8 - 0.0 - - - - - - -
20/04:30pm 12.9 ESE 6 11 1033.8 - 0.0 - - - - - - -
20/04:00pm 12.8 E 8 13 1033.8 - 0.0 - - - - - - -
20/03:30pm 13.2 SE 7 12 1033.8 - 0.0 - - - - - - -
20/03:00pm 12.9 ESE 9 15 1033.8 - 0.0 - - - - - - -
20/02:30pm 13.5 E 8 13 1034.0 - 0.0 - - - - - - -
20/02:00pm 13.3 SSE 7 11 1034.2 - 0.0 - - - - - - -
20/01:30pm 12.3 SE 8 14 1034.3 - 0.0 - - - - - - -
20/01:00pm 12.8 SSE 7 13 1034.3 - 0.0 - - - - - - -
20/12:30pm 12.7 SSE 7 14 1034.3 - 0.0 - - - - - - -
20/12:00pm 13.0 SSE 9 17 1034.3 - 0.0 - - - - - - -
20/11:30am 12.3 S 9 16 1034.3 - 0.0 - - - - - - -
20/11:00am 12.4 S 9 15 1034.3 - 0.0 - - - - - - -
20/10:30am 12.6 S 8 18 1034.1 - 0.0 - - - - - - -
20/10:00am 11.7 SSE 10 14 1033.7 - 0.0 - - - - - - -
20/09:30am 11.0 S 8 14 1033.3 - 0.0 - - - - - - -
20/09:00am 10.5 SSW 8 14 1033.2 - 11.2 Fine Partly cloudy 20 - - - -
20/08:30am 9.7 S 6 11 1033.0 - 11.2 - - - - - - -
20/08:00am 8.9 SSW 5 10 1032.9 - 11.2 - - - - - - -
20/07:30am 7.9 SSW 4 9 1032.6 - 11.2 - - - - - - -
20/07:00am 7.3 S 5 9 1032.0 - 11.2 - - - - - - -
20/06:30am 6.7 SSW 5 8 1031.5 - 11.2 - - - - - - -
20/06:00am 6.5 WSW 3 7 1030.6 - 11.2 - - - - - - -
20/05:30am 6.4 SSW 6 9 1030.1 - 11.2 - - - - - - -
20/05:00am 6.5 SW 5 9 1030.0 - 11.2 - - - - - - -
20/04:30am 7.0 SSW 7 12 1029.4 - 11.2 - - - - - - -
20/04:00am 7.1 SSW 10 17 1028.5 - 11.2 - - - - - - -
20/03:30am 6.9 SSW 5 11 1028.6 - 11.2 - - - - - - -
20/03:00am 7.2 SW 1 4 1028.5 - 11.2 - - - - - - -
20/02:30am 7.4 SSW 4 6 1028.1 - 11.2 - - - - - - -
20/02:00am 8.0 SSW 8 14 1027.4 - 11.2 - - - - - - -
20/01:30am 7.7 SSE 3 7 1026.9 - 11.2 - - - - - - -
20/01:00am 8.5 S 5 9 1026.7 - 11.2 - - - - - - -
20/12:30am 8.9 SSW 7 17 1026.2 - 11.2 - - - - - - -
20/12:00am 9.5 SSW 7 13 1025.5 - 11.2 - - - - - - -
 
Date/Time
EDT
Temp

°C
Wind Pressure Rain
since 9am
mm
Weather Cloud Vis
km
Sea
Height
m
Swell
Dir
 
Speed
knots
Gust
knots
hPa Trend Height
m
Period
s
Dir
19/11:30pm 10.0 SSW 6 10 1025.1 - 11.2 - - - - - - -
19/11:00pm 10.2 SSW 5 11 1024.2 - 11.2 - - - - - - -
19/10:30pm 10.1 SSW 2 5 1023.6 - 11.2 - - - - - - -
19/10:00pm 10.1 S 4 8 1022.8 - 11.2 - - - - - - -
19/09:30pm 10.0 SSE 5 9 1021.8 - 11.0 - - - - - - -
19/09:00pm 10.5 SSW 5 8 1021.1 - 10.8 - - - - - - -
19/08:30pm 10.6 SSW 6 11 1020.0 - 9.0 - - - - - - -
19/08:00pm 11.4 S 8 17 1019.6 - 5.6 - - - - - - -
19/07:30pm 11.6 SSE 8 18 1019.2 - 3.2 - - - - - - -
19/07:19pm 12.0 - - - 1019.0 - - - - - - - - -
19/07:00pm 12.7 SSE 9 15 1018.5 - 1.0 - - - - - - -
19/06:30pm 15.2 SSE 10 18 1018.3 - 0.0 - - - - - - -
19/06:00pm 16.0 S 9 16 1017.7 - 0.0 - - - - - - -
19/05:30pm 17.6 S 11 19 1017.1 - 0.0 - - - - - - -
19/05:00pm 21.4 S 12 22 1015.8 - 0.0 - - - - - - -
19/04:48pm 23.5 S 15 25 1015.5 - 0.0 - - - - - - -
19/04:37pm 24.8 S 14 22 1014.9 - 0.0 - - - - - - -
19/04:31pm 19.4 S 16 26 1014.8 - 0.0 - - - - - - -
19/04:30pm 19.4 S 17 26 1014.8 - 0.0 - - - - - - -
19/04:10pm 17.0 SSE 15 25 1014.6 - 0.0 - - - - - - -
19/04:00pm 18.7 SSE 13 24 1014.6 - 0.0 - - - - - - -
19/03:30pm 17.2 SSE 11 21 1014.3 - 0.0 - - - - - - -
19/03:13pm 17.7 SSE 11 16 1013.7 - 0.0 - - - - - - -
19/03:00pm 22.7 ENE 5 9 1013.7 - 0.0 - - - - - - -
19/02:30pm 25.1 WNW 9 22 1013.0 - 0.0 - - - - - - -
19/02:00pm 25.5 WNW 10 25 1013.2 - 0.0 - - - - - - -
19/01:30pm 25.2 WNW 10 19 1013.4 - 0.0 - - - - - - -
19/01:00pm 24.9 NW 10 20 1013.7 - 0.0 - - - - - - -
19/12:30pm 25.1 WNW 7 13 1014.2 - 0.0 - - - - - - -
19/12:00pm 24.1 WNW 10 17 1014.4 - 0.0 - - - - - - -
19/11:30am 22.5 WNW 9 19 1014.9 - 0.0 - - - - - - -
19/11:00am 21.6 NW 9 19 1015.2 - 0.0 - - - - - - -
19/10:30am 18.7 NW 10 14 1015.5 - 0.0 - - - - - - -
19/10:00am 18.8 W 9 17 1015.6 - 0.0 - - - - - - -
19/09:30am 18.6 WNW 11 18 1015.4 - 0.0 - - - - - - -
19/09:00am 18.2 W 11 18 1015.5 - 0.0 Haze Partly cloudy 15 - - - -
19/08:30am 17.2 NNE 4 8 1016.1 - 0.0 - - - - - - -
19/08:00am 15.2 ENE 4 6 1016.1 - 0.0 - - - - - - -
19/07:30am 15.2 NE 5 10 1016.0 - 0.0 - - - - - - -
19/07:00am 14.9 N 7 12 1016.0 - 0.0 - - - - - - -
19/06:30am 14.9 N 10 14 1016.2 - 0.0 - - - - - - -
19/06:00am 14.3 NNE 7 11 1016.3 - 0.0 - - - - - - -
19/05:30am 14.1 N 8 14 1016.9 - 0.0 - - - - - - -
19/05:00am 14.3 NNW 7 11 1017.3 - 0.0 - - - - - - -
19/04:30am 14.3 NW 8 13 1017.3 - 0.0 - - - - - - -
19/04:00am 14.2 NW 7 13 1017.4 - 0.0 - - - - - - -
19/03:30am 13.7 NW 5 10 1017.9 - 0.0 - - - - - - -
19/03:00am 13.7 NW 6 9 1018.3 - 0.0 - - - - - - -
19/02:30am 13.3 WNW 6 9 1018.6 - 0.0 - - - - - - -
19/02:00am 13.7 NW 7 13 1018.8 - 0.0 - - - - - - -
19/01:30am 14.0 NNW 6 8 1019.3 - 0.0 - - - - - - -
19/01:00am 13.7 NNW 6 9 1019.3 - 0.0 - - - - - - -
19/12:30am 13.6 NNW 7 13 1019.8 - 0.0 - - - - - - -
19/12:00am 13.7 NNW 7 11 1020.0 - 0.0 - - - - - - -
 
Date/Time
EDT
Temp

°C
Wind Pressure Rain
since 9am
mm
Weather Cloud Vis
km
Sea
Height
m
Swell
Dir
 
Speed
knots
Gust
knots
hPa Trend Height
m
Period
s
Dir
18/11:30pm 13.5 NNW 7 11 1020.5 - 0.0 - - - - - - -
18/11:00pm 13.8 N 7 11 1021.0 - 0.0 - - - - - - -
18/10:30pm 13.9 NNW 6 10 1021.4 - 0.0 - - - - - - -
18/10:00pm 13.9 NNW 7 11 1022.0 - 0.0 - - - - - - -
18/09:30pm 14.0 NNW 8 13 1022.3 - 0.0 - - - - - - -

Other Formats:

Comma delimited format used in spreadsheet applications
http://www.bom.gov.au/fwo/IDT60701/IDT60701.95981.axf

JavaScript Object Notation format (JSON) in row-major order
http://www.bom.gov.au/fwo/IDT60701/IDT60701.95981.json